sensor_id;sensor_type;location;lat;lon;timestamp;P1;durP1;ratioP1;P2;durP2;ratioP2
63320;SDS011;49449;48.800;9.534;2023-08-17T00:00:32;4.35;;;2.72;;
63320;SDS011;49449;48.800;9.534;2023-08-17T00:03:00;3.28;;;2.30;;
63320;SDS011;49449;48.800;9.534;2023-08-17T00:05:29;2.65;;;2.15;;
63320;SDS011;49449;48.800;9.534;2023-08-17T00:07:59;2.30;;;1.90;;
63320;SDS011;49449;48.800;9.534;2023-08-17T00:10:27;3.47;;;2.60;;
63320;SDS011;49449;48.800;9.534;2023-08-17T00:12:55;2.40;;;2.20;;
63320;SDS011;49449;48.800;9.534;2023-08-17T00:15:23;2.15;;;2.03;;
63320;SDS011;49449;48.800;9.534;2023-08-17T00:17:51;4.95;;;2.80;;
63320;SDS011;49449;48.800;9.534;2023-08-17T00:20:18;2.15;;;1.98;;
63320;SDS011;49449;48.800;9.534;2023-08-17T00:22:48;3.22;;;2.10;;
63320;SDS011;49449;48.800;9.534;2023-08-17T00:25:15;2.75;;;2.45;;
63320;SDS011;49449;48.800;9.534;2023-08-17T00:27:43;3.42;;;2.50;;
63320;SDS011;49449;48.800;9.534;2023-08-17T00:30:11;3.30;;;2.45;;
63320;SDS011;49449;48.800;9.534;2023-08-17T00:32:40;2.58;;;2.20;;
63320;SDS011;49449;48.800;9.534;2023-08-17T00:35:08;4.07;;;3.15;;
63320;SDS011;49449;48.800;9.534;2023-08-17T00:37:35;2.75;;;2.50;;
63320;SDS011;49449;48.800;9.534;2023-08-17T00:40:05;4.18;;;2.72;;
63320;SDS011;49449;48.800;9.534;2023-08-17T00:42:34;4.35;;;2.47;;
63320;SDS011;49449;48.800;9.534;2023-08-17T00:45:02;2.83;;;2.63;;
63320;SDS011;49449;48.800;9.534;2023-08-17T00:47:30;3.28;;;2.60;;
63320;SDS011;49449;48.800;9.534;2023-08-17T00:49:58;2.65;;;2.45;;
63320;SDS011;49449;48.800;9.534;2023-08-17T00:52:27;2.80;;;2.40;;
63320;SDS011;49449;48.800;9.534;2023-08-17T00:54:55;3.45;;;2.42;;
63320;SDS011;49449;48.800;9.534;2023-08-17T00:57:25;2.75;;;2.38;;
63320;SDS011;49449;48.800;9.534;2023-08-17T00:59:54;4.30;;;2.97;;
63320;SDS011;49449;48.800;9.534;2023-08-17T01:02:28;2.58;;;2.38;;
63320;SDS011;49449;48.800;9.534;2023-08-17T01:04:57;2.47;;;2.20;;
63320;SDS011;49449;48.800;9.534;2023-08-17T01:07:25;2.85;;;2.65;;
63320;SDS011;49449;48.800;9.534;2023-08-17T01:09:53;5.07;;;3.00;;
63320;SDS011;49449;48.800;9.534;2023-08-17T01:12:23;3.13;;;2.38;;
63320;SDS011;49449;48.800;9.534;2023-08-17T01:14:59;3.80;;;2.90;;
63320;SDS011;49449;48.800;9.534;2023-08-17T01:17:33;3.22;;;2.30;;
63320;SDS011;49449;48.800;9.534;2023-08-17T01:20:05;6.15;;;2.70;;
63320;SDS011;49449;48.800;9.534;2023-08-17T01:22:38;4.30;;;2.75;;
63320;SDS011;49449;48.800;9.534;2023-08-17T01:25:10;3.90;;;2.55;;
63320;SDS011;49449;48.800;9.534;2023-08-17T01:27:38;3.47;;;2.60;;
63320;SDS011;49449;48.800;9.534;2023-08-17T01:30:07;4.95;;;2.60;;
63320;SDS011;49449;48.800;9.534;2023-08-17T01:32:37;2.97;;;2.67;;
63320;SDS011;49449;48.800;9.534;2023-08-17T01:35:10;5.18;;;3.17;;
63320;SDS011;49449;48.800;9.534;2023-08-17T01:37:43;3.17;;;2.88;;
63320;SDS011;49449;48.800;9.534;2023-08-17T01:40:12;2.97;;;2.78;;
63320;SDS011;49449;48.800;9.534;2023-08-17T01:42:41;4.32;;;2.42;;
63320;SDS011;49449;48.800;9.534;2023-08-17T01:45:10;3.88;;;2.70;;
63320;SDS011;49449;48.800;9.534;2023-08-17T01:47:38;4.15;;;3.00;;
63320;SDS011;49449;48.800;9.534;2023-08-17T01:50:07;4.47;;;2.65;;
63320;SDS011;49449;48.800;9.534;2023-08-17T01:52:35;6.90;;;3.60;;
63320;SDS011;49449;48.800;9.534;2023-08-17T01:55:03;4.40;;;2.67;;
63320;SDS011;49449;48.800;9.534;2023-08-17T01:57:33;3.92;;;2.70;;
63320;SDS011;49449;48.800;9.534;2023-08-17T02:00:02;5.18;;;2.80;;
63320;SDS011;49449;48.800;9.534;2023-08-17T02:02:31;3.63;;;2.40;;
63320;SDS011;49449;48.800;9.534;2023-08-17T02:04:59;3.55;;;3.25;;
63320;SDS011;49449;48.800;9.534;2023-08-17T02:07:26;3.03;;;2.40;;
63320;SDS011;49449;48.800;9.534;2023-08-17T02:09:54;3.65;;;2.50;;
63320;SDS011;49449;48.800;9.534;2023-08-17T02:12:22;3.60;;;2.83;;
63320;SDS011;49449;48.800;9.534;2023-08-17T02:14:51;3.03;;;2.70;;
63320;SDS011;49449;48.800;9.534;2023-08-17T02:17:19;4.85;;;2.67;;
63320;SDS011;49449;48.800;9.534;2023-08-17T02:19:48;4.75;;;3.65;;
63320;SDS011;49449;48.800;9.534;2023-08-17T02:22:16;5.85;;;3.88;;
63320;SDS011;49449;48.800;9.534;2023-08-17T02:24:44;5.60;;;3.80;;
63320;SDS011;49449;48.800;9.534;2023-08-17T02:27:14;5.88;;;3.83;;
63320;SDS011;49449;48.800;9.534;2023-08-17T02:29:42;3.47;;;3.17;;
63320;SDS011;49449;48.800;9.534;2023-08-17T02:32:11;3.78;;;3.47;;
63320;SDS011;49449;48.800;9.534;2023-08-17T02:34:39;4.60;;;3.15;;
63320;SDS011;49449;48.800;9.534;2023-08-17T02:37:06;3.95;;;3.30;;
63320;SDS011;49449;48.800;9.534;2023-08-17T02:39:34;3.53;;;2.97;;
63320;SDS011;49449;48.800;9.534;2023-08-17T02:42:02;3.83;;;3.13;;
63320;SDS011;49449;48.800;9.534;2023-08-17T02:44:30;4.63;;;3.40;;
63320;SDS011;49449;48.800;9.534;2023-08-17T02:46:58;3.58;;;3.28;;
63320;SDS011;49449;48.800;9.534;2023-08-17T02:49:27;5.35;;;3.60;;
63320;SDS011;49449;48.800;9.534;2023-08-17T02:51:55;5.13;;;4.15;;
63320;SDS011;49449;48.800;9.534;2023-08-17T02:54:23;4.63;;;4.18;;
63320;SDS011;49449;48.800;9.534;2023-08-17T02:56:51;4.50;;;3.75;;
63320;SDS011;49449;48.800;9.534;2023-08-17T02:59:18;4.80;;;4.18;;
63320;SDS011;49449;48.800;9.534;2023-08-17T03:01:46;4.32;;;3.92;;
63320;SDS011;49449;48.800;9.534;2023-08-17T03:04:14;3.90;;;3.28;;
63320;SDS011;49449;48.800;9.534;2023-08-17T03:06:43;4.35;;;3.53;;
63320;SDS011;49449;48.800;9.534;2023-08-17T03:09:13;5.70;;;4.28;;
63320;SDS011;49449;48.800;9.534;2023-08-17T03:11:41;4.78;;;3.70;;
63320;SDS011;49449;48.800;9.534;2023-08-17T03:14:09;5.28;;;4.10;;
63320;SDS011;49449;48.800;9.534;2023-08-17T03:16:39;6.63;;;3.85;;
63320;SDS011;49449;48.800;9.534;2023-08-17T03:19:07;5.03;;;3.83;;
63320;SDS011;49449;48.800;9.534;2023-08-17T03:21:37;7.80;;;4.05;;
63320;SDS011;49449;48.800;9.534;2023-08-17T03:24:06;6.85;;;5.07;;
63320;SDS011;49449;48.800;9.534;2023-08-17T03:26:34;5.72;;;4.97;;
63320;SDS011;49449;48.800;9.534;2023-08-17T03:29:02;7.97;;;4.15;;
63320;SDS011;49449;48.800;9.534;2023-08-17T03:31:30;7.85;;;4.82;;
63320;SDS011;49449;48.800;9.534;2023-08-17T03:33:58;15.38;;;4.78;;
63320;SDS011;49449;48.800;9.534;2023-08-17T03:36:26;7.78;;;4.65;;
63320;SDS011;49449;48.800;9.534;2023-08-17T03:38:55;22.10;;;5.35;;
63320;SDS011;49449;48.800;9.534;2023-08-17T03:41:24;6.95;;;4.80;;
63320;SDS011;49449;48.800;9.534;2023-08-17T03:43:52;10.20;;;5.30;;
63320;SDS011;49449;48.800;9.534;2023-08-17T03:46:20;9.98;;;5.10;;
63320;SDS011;49449;48.800;9.534;2023-08-17T03:48:48;11.23;;;5.32;;
63320;SDS011;49449;48.800;9.534;2023-08-17T03:51:16;5.65;;;4.93;;
63320;SDS011;49449;48.800;9.534;2023-08-17T03:53:43;4.95;;;4.00;;
63320;SDS011;49449;48.800;9.534;2023-08-17T03:56:11;6.03;;;4.25;;
63320;SDS011;49449;48.800;9.534;2023-08-17T03:58:40;5.45;;;4.25;;
63320;SDS011;49449;48.800;9.534;2023-08-17T04:01:10;6.10;;;5.03;;
63320;SDS011;49449;48.800;9.534;2023-08-17T04:03:39;7.43;;;4.97;;
63320;SDS011;49449;48.800;9.534;2023-08-17T04:06:07;6.88;;;4.90;;
63320;SDS011;49449;48.800;9.534;2023-08-17T04:08:36;7.07;;;5.28;;
63320;SDS011;49449;48.800;9.534;2023-08-17T04:11:05;6.20;;;5.60;;
63320;SDS011;49449;48.800;9.534;2023-08-17T04:13:33;6.20;;;4.07;;
63320;SDS011;49449;48.800;9.534;2023-08-17T04:16:02;5.28;;;3.80;;
63320;SDS011;49449;48.800;9.534;2023-08-17T04:18:30;4.30;;;3.78;;
63320;SDS011;49449;48.800;9.534;2023-08-17T04:20:58;4.40;;;3.33;;
63320;SDS011;49449;48.800;9.534;2023-08-17T04:23:25;3.80;;;3.40;;
63320;SDS011;49449;48.800;9.534;2023-08-17T04:25:53;4.07;;;3.40;;
63320;SDS011;49449;48.800;9.534;2023-08-17T04:28:22;3.28;;;2.97;;
63320;SDS011;49449;48.800;9.534;2023-08-17T04:30:50;7.20;;;4.38;;
63320;SDS011;49449;48.800;9.534;2023-08-17T04:33:19;5.10;;;3.75;;
63320;SDS011;49449;48.800;9.534;2023-08-17T04:35:47;6.40;;;4.45;;
63320;SDS011;49449;48.800;9.534;2023-08-17T04:38:15;6.10;;;4.25;;
63320;SDS011;49449;48.800;9.534;2023-08-17T04:40:43;6.05;;;4.57;;
63320;SDS011;49449;48.800;9.534;2023-08-17T04:43:12;7.25;;;4.28;;
63320;SDS011;49449;48.800;9.534;2023-08-17T04:45:41;7.65;;;5.53;;
63320;SDS011;49449;48.800;9.534;2023-08-17T04:48:08;8.30;;;4.70;;
63320;SDS011;49449;48.800;9.534;2023-08-17T04:50:38;6.53;;;5.00;;
63320;SDS011;49449;48.800;9.534;2023-08-17T04:53:05;5.93;;;4.72;;
63320;SDS011;49449;48.800;9.534;2023-08-17T04:55:33;7.18;;;4.57;;
63320;SDS011;49449;48.800;9.534;2023-08-17T04:58:01;5.88;;;4.80;;
63320;SDS011;49449;48.800;9.534;2023-08-17T05:00:29;7.68;;;4.60;;
63320;SDS011;49449;48.800;9.534;2023-08-17T05:02:57;6.20;;;4.90;;
63320;SDS011;49449;48.800;9.534;2023-08-17T05:05:25;6.30;;;4.28;;
63320;SDS011;49449;48.800;9.534;2023-08-17T05:07:54;5.30;;;4.57;;
63320;SDS011;49449;48.800;9.534;2023-08-17T05:10:22;7.07;;;4.88;;
63320;SDS011;49449;48.800;9.534;2023-08-17T05:12:50;7.22;;;4.38;;
63320;SDS011;49449;48.800;9.534;2023-08-17T05:15:17;6.75;;;4.57;;
63320;SDS011;49449;48.800;9.534;2023-08-17T05:17:45;5.68;;;4.53;;
63320;SDS011;49449;48.800;9.534;2023-08-17T05:20:13;5.70;;;4.25;;
63320;SDS011;49449;48.800;9.534;2023-08-17T05:22:42;6.68;;;4.43;;
63320;SDS011;49449;48.800;9.534;2023-08-17T05:25:11;7.43;;;5.30;;
63320;SDS011;49449;48.800;9.534;2023-08-17T05:27:39;6.05;;;5.00;;
63320;SDS011;49449;48.800;9.534;2023-08-17T05:30:07;6.57;;;4.63;;
63320;SDS011;49449;48.800;9.534;2023-08-17T05:32:35;7.10;;;5.22;;
63320;SDS011;49449;48.800;9.534;2023-08-17T05:35:03;7.72;;;5.45;;
63320;SDS011;49449;48.800;9.534;2023-08-17T05:37:31;7.88;;;5.10;;
63320;SDS011;49449;48.800;9.534;2023-08-17T05:39:59;8.25;;;5.40;;
63320;SDS011;49449;48.800;9.534;2023-08-17T05:42:28;7.47;;;5.00;;
63320;SDS011;49449;48.800;9.534;2023-08-17T05:44:56;7.43;;;5.38;;
63320;SDS011;49449;48.800;9.534;2023-08-17T05:47:24;8.25;;;5.60;;
63320;SDS011;49449;48.800;9.534;2023-08-17T05:49:52;8.60;;;5.95;;
63320;SDS011;49449;48.800;9.534;2023-08-17T05:52:20;8.18;;;5.68;;
63320;SDS011;49449;48.800;9.534;2023-08-17T05:54:47;7.97;;;5.93;;
63320;SDS011;49449;48.800;9.534;2023-08-17T05:57:15;8.13;;;6.05;;
63320;SDS011;49449;48.800;9.534;2023-08-17T05:59:44;7.78;;;5.78;;
63320;SDS011;49449;48.800;9.534;2023-08-17T06:02:12;9.38;;;6.50;;
63320;SDS011;49449;48.800;9.534;2023-08-17T06:04:40;9.20;;;7.07;;
63320;SDS011;49449;48.800;9.534;2023-08-17T06:07:08;7.63;;;6.28;;
63320;SDS011;49449;48.800;9.534;2023-08-17T06:09:36;7.65;;;5.85;;
63320;SDS011;49449;48.800;9.534;2023-08-17T06:12:04;8.23;;;6.53;;
63320;SDS011;49449;48.800;9.534;2023-08-17T06:14:32;8.90;;;7.00;;
63320;SDS011;49449;48.800;9.534;2023-08-17T06:17:02;8.25;;;6.82;;
63320;SDS011;49449;48.800;9.534;2023-08-17T06:19:30;7.88;;;6.55;;
63320;SDS011;49449;48.800;9.534;2023-08-17T06:21:58;8.57;;;6.03;;
63320;SDS011;49449;48.800;9.534;2023-08-17T06:24:26;7.43;;;6.13;;
63320;SDS011;49449;48.800;9.534;2023-08-17T06:26:54;8.90;;;7.00;;
63320;SDS011;49449;48.800;9.534;2023-08-17T06:29:21;7.88;;;5.70;;
63320;SDS011;49449;48.800;9.534;2023-08-17T06:31:49;8.95;;;6.80;;
63320;SDS011;49449;48.800;9.534;2023-08-17T06:34:18;7.63;;;6.40;;
63320;SDS011;49449;48.800;9.534;2023-08-17T06:36:56;7.78;;;6.00;;
63320;SDS011;49449;48.800;9.534;2023-08-17T06:39:24;7.40;;;5.65;;
63320;SDS011;49449;48.800;9.534;2023-08-17T06:41:52;7.22;;;6.07;;
63320;SDS011;49449;48.800;9.534;2023-08-17T06:44:20;8.05;;;7.25;;
63320;SDS011;49449;48.800;9.534;2023-08-17T06:46:48;8.07;;;7.13;;
63320;SDS011;49449;48.800;9.534;2023-08-17T06:49:16;7.78;;;6.07;;
63320;SDS011;49449;48.800;9.534;2023-08-17T06:51:45;8.85;;;6.32;;
63320;SDS011;49449;48.800;9.534;2023-08-17T06:54:13;7.55;;;5.50;;
63320;SDS011;49449;48.800;9.534;2023-08-17T06:56:41;8.93;;;7.22;;
63320;SDS011;49449;48.800;9.534;2023-08-17T06:59:09;7.90;;;6.05;;
63320;SDS011;49449;48.800;9.534;2023-08-17T07:01:36;7.43;;;6.55;;
63320;SDS011;49449;48.800;9.534;2023-08-17T07:04:04;7.60;;;5.82;;
63320;SDS011;49449;48.800;9.534;2023-08-17T07:06:32;8.70;;;6.55;;
63320;SDS011;49449;48.800;9.534;2023-08-17T07:09:03;7.57;;;5.90;;
63320;SDS011;49449;48.800;9.534;2023-08-17T07:11:31;8.00;;;6.68;;
63320;SDS011;49449;48.800;9.534;2023-08-17T07:13:59;7.10;;;6.20;;
63320;SDS011;49449;48.800;9.534;2023-08-17T07:16:27;7.55;;;6.45;;
63320;SDS011;49449;48.800;9.534;2023-08-17T07:18:55;8.30;;;7.03;;
63320;SDS011;49449;48.800;9.534;2023-08-17T07:21:23;7.03;;;5.72;;
63320;SDS011;49449;48.800;9.534;2023-08-17T07:23:50;7.18;;;5.22;;
63320;SDS011;49449;48.800;9.534;2023-08-17T07:26:20;6.05;;;5.43;;
63320;SDS011;49449;48.800;9.534;2023-08-17T07:28:49;6.85;;;6.15;;
63320;SDS011;49449;48.800;9.534;2023-08-17T07:31:17;6.28;;;5.68;;
63320;SDS011;49449;48.800;9.534;2023-08-17T07:33:44;6.25;;;5.53;;
63320;SDS011;49449;48.800;9.534;2023-08-17T07:36:12;7.60;;;5.50;;
63320;SDS011;49449;48.800;9.534;2023-08-17T07:38:40;5.57;;;5.03;;
63320;SDS011;49449;48.800;9.534;2023-08-17T07:41:08;5.90;;;4.85;;
63320;SDS011;49449;48.800;9.534;2023-08-17T07:43:37;6.75;;;5.90;;
63320;SDS011;49449;48.800;9.534;2023-08-17T07:46:05;5.63;;;5.13;;
63320;SDS011;49449;48.800;9.534;2023-08-17T07:48:33;5.80;;;4.38;;
63320;SDS011;49449;48.800;9.534;2023-08-17T07:51:00;5.80;;;5.20;;
63320;SDS011;49449;48.800;9.534;2023-08-17T07:53:28;5.45;;;4.95;;
63320;SDS011;49449;48.800;9.534;2023-08-17T07:55:56;5.05;;;4.30;;
63320;SDS011;49449;48.800;9.534;2023-08-17T07:58:24;5.93;;;5.15;;
63320;SDS011;49449;48.800;9.534;2023-08-17T08:00:53;4.65;;;4.25;;
63320;SDS011;49449;48.800;9.534;2023-08-17T08:03:20;5.63;;;5.03;;
63320;SDS011;49449;48.800;9.534;2023-08-17T08:05:48;5.28;;;4.78;;
63320;SDS011;49449;48.800;9.534;2023-08-17T08:08:16;5.68;;;5.05;;
63320;SDS011;49449;48.800;9.534;2023-08-17T08:10:44;5.50;;;4.53;;
63320;SDS011;49449;48.800;9.534;2023-08-17T08:13:11;4.80;;;4.40;;
63320;SDS011;49449;48.800;9.534;2023-08-17T08:15:42;5.57;;;5.07;;
63320;SDS011;49449;48.800;9.534;2023-08-17T08:18:11;4.72;;;4.32;;
63320;SDS011;49449;48.800;9.534;2023-08-17T08:20:38;4.78;;;4.38;;
63320;SDS011;49449;48.800;9.534;2023-08-17T08:23:06;5.57;;;4.18;;
63320;SDS011;49449;48.800;9.534;2023-08-17T08:25:34;5.13;;;4.30;;
63320;SDS011;49449;48.800;9.534;2023-08-17T08:28:02;5.20;;;4.70;;
63320;SDS011;49449;48.800;9.534;2023-08-17T08:30:30;5.53;;;5.03;;
63320;SDS011;49449;48.800;9.534;2023-08-17T08:32:58;6.13;;;5.53;;
63320;SDS011;49449;48.800;9.534;2023-08-17T08:35:27;5.95;;;5.35;;
63320;SDS011;49449;48.800;9.534;2023-08-17T08:37:55;5.63;;;5.03;;
63320;SDS011;49449;48.800;9.534;2023-08-17T08:40:26;4.85;;;4.43;;
63320;SDS011;49449;48.800;9.534;2023-08-17T08:42:55;6.32;;;4.65;;
63320;SDS011;49449;48.800;9.534;2023-08-17T08:45:24;6.07;;;5.50;;
63320;SDS011;49449;48.800;9.534;2023-08-17T08:47:53;5.40;;;4.90;;
63320;SDS011;49449;48.800;9.534;2023-08-17T08:50:21;5.78;;;5.18;;
63320;SDS011;49449;48.800;9.534;2023-08-17T08:52:56;6.68;;;6.00;;
63320;SDS011;49449;48.800;9.534;2023-08-17T08:55:27;5.22;;;4.72;;
63320;SDS011;49449;48.800;9.534;2023-08-17T08:57:59;5.57;;;5.07;;
63320;SDS011;49449;48.800;9.534;2023-08-17T09:00:27;5.07;;;4.47;;
63320;SDS011;49449;48.800;9.534;2023-08-17T09:02:56;5.43;;;3.90;;
63320;SDS011;49449;48.800;9.534;2023-08-17T09:05:25;4.43;;;3.80;;
63320;SDS011;49449;48.800;9.534;2023-08-17T09:07:54;4.40;;;4.00;;
63320;SDS011;49449;48.800;9.534;2023-08-17T09:10:23;5.05;;;4.53;;
63320;SDS011;49449;48.800;9.534;2023-08-17T09:12:52;4.97;;;4.57;;
63320;SDS011;49449;48.800;9.534;2023-08-17T09:15:20;4.15;;;3.85;;
63320;SDS011;49449;48.800;9.534;2023-08-17T09:17:47;4.30;;;3.95;;
63320;SDS011;49449;48.800;9.534;2023-08-17T09:23:04;4.38;;;3.97;;
63320;SDS011;49449;48.800;9.534;2023-08-17T09:25:37;4.88;;;4.38;;
63320;SDS011;49449;48.800;9.534;2023-08-17T09:28:06;4.43;;;3.80;;
63320;SDS011;49449;48.800;9.534;2023-08-17T09:30:53;4.40;;;3.97;;
63320;SDS011;49449;48.800;9.534;2023-08-17T09:33:22;4.90;;;3.72;;
63320;SDS011;49449;48.800;9.534;2023-08-17T09:35:52;4.63;;;4.32;;
63320;SDS011;49449;48.800;9.534;2023-08-17T09:38:25;4.68;;;3.95;;
63320;SDS011;49449;48.800;9.534;2023-08-17T09:40:53;4.32;;;3.92;;
63320;SDS011;49449;48.800;9.534;2023-08-17T09:43:21;4.90;;;4.50;;
63320;SDS011;49449;48.800;9.534;2023-08-17T09:45:50;4.65;;;4.28;;
63320;SDS011;49449;48.800;9.534;2023-08-17T09:48:19;4.50;;;4.20;;
63320;SDS011;49449;48.800;9.534;2023-08-17T09:50:47;4.82;;;4.43;;
63320;SDS011;49449;48.800;9.534;2023-08-17T09:53:16;5.32;;;4.90;;
63320;SDS011;49449;48.800;9.534;2023-08-17T09:55:47;5.05;;;4.55;;
63320;SDS011;49449;48.800;9.534;2023-08-17T09:58:14;5.25;;;4.85;;
63320;SDS011;49449;48.800;9.534;2023-08-17T10:00:43;5.30;;;4.78;;
63320;SDS011;49449;48.800;9.534;2023-08-17T10:03:15;6.15;;;5.25;;
63320;SDS011;49449;48.800;9.534;2023-08-17T10:05:46;5.20;;;4.80;;
63320;SDS011;49449;48.800;9.534;2023-08-17T10:08:20;5.30;;;4.63;;
63320;SDS011;49449;48.800;9.534;2023-08-17T10:10:50;4.38;;;4.00;;
63320;SDS011;49449;48.800;9.534;2023-08-17T10:13:23;6.10;;;5.50;;
63320;SDS011;49449;48.800;9.534;2023-08-17T10:15:57;5.78;;;5.15;;
63320;SDS011;49449;48.800;9.534;2023-08-17T10:18:34;4.72;;;4.35;;
63320;SDS011;49449;48.800;9.534;2023-08-17T10:21:06;4.80;;;4.40;;
63320;SDS011;49449;48.800;9.534;2023-08-17T10:23:36;5.45;;;4.88;;
63320;SDS011;49449;48.800;9.534;2023-08-17T10:26:09;5.25;;;4.70;;
63320;SDS011;49449;48.800;9.534;2023-08-17T10:28:37;5.30;;;4.80;;
63320;SDS011;49449;48.800;9.534;2023-08-17T10:31:06;5.82;;;5.32;;
63320;SDS011;49449;48.800;9.534;2023-08-17T10:33:36;4.97;;;4.28;;
63320;SDS011;49449;48.800;9.534;2023-08-17T10:36:07;5.72;;;5.22;;
63320;SDS011;49449;48.800;9.534;2023-08-17T10:38:36;5.32;;;4.82;;
63320;SDS011;49449;48.800;9.534;2023-08-17T10:41:08;5.57;;;5.07;;
63320;SDS011;49449;48.800;9.534;2023-08-17T10:43:55;4.80;;;4.40;;
63320;SDS011;49449;48.800;9.534;2023-08-17T10:46:33;5.43;;;4.93;;
63320;SDS011;49449;48.800;9.534;2023-08-17T10:49:05;6.07;;;5.47;;
63320;SDS011;49449;48.800;9.534;2023-08-17T10:52:00;6.47;;;4.80;;
63320;SDS011;49449;48.800;9.534;2023-08-17T10:54:36;5.88;;;5.38;;
63320;SDS011;49449;48.800;9.534;2023-08-17T10:57:27;5.88;;;4.47;;
63320;SDS011;49449;48.800;9.534;2023-08-17T11:00:08;5.95;;;5.40;;
63320;SDS011;49449;48.800;9.534;2023-08-17T11:02:48;5.25;;;4.80;;
63320;SDS011;49449;48.800;9.534;2023-08-17T11:05:40;7.25;;;4.97;;
63320;SDS011;49449;48.800;9.534;2023-08-17T11:08:10;4.85;;;4.45;;
63320;SDS011;49449;48.800;9.534;2023-08-17T11:10:46;6.50;;;5.90;;
63320;SDS011;49449;48.800;9.534;2023-08-17T11:13:16;5.72;;;5.10;;
63320;SDS011;49449;48.800;9.534;2023-08-17T11:15:44;5.38;;;4.88;;
63320;SDS011;49449;48.800;9.534;2023-08-17T11:18:14;6.25;;;5.57;;
63320;SDS011;49449;48.800;9.534;2023-08-17T11:20:42;6.53;;;5.93;;
63320;SDS011;49449;48.800;9.534;2023-08-17T11:23:10;5.72;;;5.22;;
63320;SDS011;49449;48.800;9.534;2023-08-17T11:25:38;5.55;;;5.05;;
63320;SDS011;49449;48.800;9.534;2023-08-17T11:28:07;5.80;;;5.30;;
63320;SDS011;49449;48.800;9.534;2023-08-17T11:30:38;6.53;;;5.93;;
63320;SDS011;49449;48.800;9.534;2023-08-17T11:33:06;6.75;;;6.15;;
63320;SDS011;49449;48.800;9.534;2023-08-17T11:35:34;6.70;;;5.97;;
63320;SDS011;49449;48.800;9.534;2023-08-17T11:38:03;7.15;;;6.55;;
63320;SDS011;49449;48.800;9.534;2023-08-17T11:40:33;6.18;;;5.32;;
63320;SDS011;49449;48.800;9.534;2023-08-17T11:43:02;6.75;;;5.63;;
63320;SDS011;49449;48.800;9.534;2023-08-17T11:45:31;6.68;;;5.68;;
63320;SDS011;49449;48.800;9.534;2023-08-17T11:48:01;6.75;;;6.15;;
63320;SDS011;49449;48.800;9.534;2023-08-17T11:50:29;6.53;;;5.93;;
63320;SDS011;49449;48.800;9.534;2023-08-17T11:52:58;5.82;;;5.25;;
63320;SDS011;49449;48.800;9.534;2023-08-17T11:55:26;6.75;;;5.45;;
63320;SDS011;49449;48.800;9.534;2023-08-17T11:57:55;6.00;;;5.25;;
63320;SDS011;49449;48.800;9.534;2023-08-17T12:00:23;5.75;;;5.25;;
63320;SDS011;49449;48.800;9.534;2023-08-17T12:02:52;6.80;;;5.50;;
63320;SDS011;49449;48.800;9.534;2023-08-17T12:05:22;5.72;;;5.22;;
63320;SDS011;49449;48.800;9.534;2023-08-17T12:10:20;6.07;;;5.47;;
63320;SDS011;49449;48.800;9.534;2023-08-17T12:12:48;6.30;;;5.80;;
63320;SDS011;49449;48.800;9.534;2023-08-17T12:15:17;6.03;;;5.38;;
63320;SDS011;49449;48.800;9.534;2023-08-17T12:17:45;6.75;;;6.15;;
63320;SDS011;49449;48.800;9.534;2023-08-17T12:20:16;5.97;;;5.38;;
63320;SDS011;49449;48.800;9.534;2023-08-17T12:22:46;6.82;;;6.22;;
63320;SDS011;49449;48.800;9.534;2023-08-17T12:25:15;5.75;;;5.25;;
63320;SDS011;49449;48.800;9.534;2023-08-17T12:27:43;8.10;;;6.10;;
63320;SDS011;49449;48.800;9.534;2023-08-17T12:30:23;8.40;;;6.13;;
63320;SDS011;49449;48.800;9.534;2023-08-17T12:32:52;5.93;;;5.38;;
63320;SDS011;49449;48.800;9.534;2023-08-17T12:35:21;5.65;;;5.15;;
63320;SDS011;49449;48.800;9.534;2023-08-17T12:37:52;5.50;;;5.03;;
63320;SDS011;49449;48.800;9.534;2023-08-17T12:40:20;6.35;;;4.97;;
63320;SDS011;49449;48.800;9.534;2023-08-17T12:42:49;6.35;;;5.75;;
63320;SDS011;49449;48.800;9.534;2023-08-17T12:45:17;6.60;;;5.95;;
63320;SDS011;49449;48.800;9.534;2023-08-17T12:47:45;5.55;;;4.95;;
63320;SDS011;49449;48.800;9.534;2023-08-17T12:50:14;5.68;;;5.18;;
63320;SDS011;49449;48.800;9.534;2023-08-17T12:52:43;6.13;;;5.53;;
63320;SDS011;49449;48.800;9.534;2023-08-17T12:55:13;10.63;;;6.10;;
63320;SDS011;49449;48.800;9.534;2023-08-17T12:57:41;6.07;;;5.47;;
63320;SDS011;49449;48.800;9.534;2023-08-17T13:00:10;5.95;;;5.35;;
63320;SDS011;49449;48.800;9.534;2023-08-17T13:02:38;6.50;;;5.63;;
63320;SDS011;49449;48.800;9.534;2023-08-17T13:05:06;8.75;;;6.68;;
63320;SDS011;49449;48.800;9.534;2023-08-17T13:07:34;7.63;;;6.97;;
63320;SDS011;49449;48.800;9.534;2023-08-17T13:10:02;6.47;;;5.88;;
63320;SDS011;49449;48.800;9.534;2023-08-17T13:12:31;7.93;;;6.03;;
63320;SDS011;49449;48.800;9.534;2023-08-17T13:14:59;6.53;;;5.93;;
63320;SDS011;49449;48.800;9.534;2023-08-17T13:17:27;6.10;;;5.55;;
63320;SDS011;49449;48.800;9.534;2023-08-17T13:19:54;6.07;;;5.40;;
63320;SDS011;49449;48.800;9.534;2023-08-17T13:22:22;6.05;;;5.53;;
63320;SDS011;49449;48.800;9.534;2023-08-17T13:24:50;7.43;;;6.47;;
63320;SDS011;49449;48.800;9.534;2023-08-17T13:27:18;6.25;;;5.65;;
63320;SDS011;49449;48.800;9.534;2023-08-17T13:29:47;7.78;;;6.88;;
63320;SDS011;49449;48.800;9.534;2023-08-17T13:32:15;7.50;;;6.80;;
63320;SDS011;49449;48.800;9.534;2023-08-17T13:34:42;7.63;;;6.30;;
63320;SDS011;49449;48.800;9.534;2023-08-17T13:37:10;6.88;;;6.18;;
63320;SDS011;49449;48.800;9.534;2023-08-17T13:39:38;7.30;;;5.43;;
63320;SDS011;49449;48.800;9.534;2023-08-17T13:42:06;7.05;;;6.35;;
63320;SDS011;49449;48.800;9.534;2023-08-17T13:44:34;7.10;;;6.40;;
63320;SDS011;49449;48.800;9.534;2023-08-17T13:47:03;6.47;;;5.70;;
63320;SDS011;49449;48.800;9.534;2023-08-17T13:49:31;7.15;;;6.45;;
63320;SDS011;49449;48.800;9.534;2023-08-17T13:51:59;6.82;;;6.13;;
63320;SDS011;49449;48.800;9.534;2023-08-17T13:54:27;6.55;;;5.95;;
63320;SDS011;49449;48.800;9.534;2023-08-17T13:56:54;7.45;;;6.65;;
63320;SDS011;49449;48.800;9.534;2023-08-17T13:59:23;6.55;;;5.95;;
63320;SDS011;49449;48.800;9.534;2023-08-17T14:01:51;7.00;;;6.30;;
63320;SDS011;49449;48.800;9.534;2023-08-17T14:04:20;7.68;;;6.38;;
63320;SDS011;49449;48.800;9.534;2023-08-17T14:06:48;6.45;;;5.85;;
63320;SDS011;49449;48.800;9.534;2023-08-17T14:09:17;7.65;;;6.65;;
63320;SDS011;49449;48.800;9.534;2023-08-17T14:11:46;7.90;;;7.13;;
63320;SDS011;49449;48.800;9.534;2023-08-17T14:14:14;7.35;;;6.65;;
63320;SDS011;49449;48.800;9.534;2023-08-17T14:16:42;7.28;;;6.68;;
63320;SDS011;49449;48.800;9.534;2023-08-17T14:19:10;8.38;;;7.18;;
63320;SDS011;49449;48.800;9.534;2023-08-17T14:21:39;7.30;;;6.63;;
63320;SDS011;49449;48.800;9.534;2023-08-17T14:24:07;7.25;;;6.38;;
63320;SDS011;49449;48.800;9.534;2023-08-17T14:26:35;7.15;;;6.28;;
63320;SDS011;49449;48.800;9.534;2023-08-17T14:29:03;8.95;;;6.55;;
63320;SDS011;49449;48.800;9.534;2023-08-17T14:31:31;6.82;;;6.13;;
63320;SDS011;49449;48.800;9.534;2023-08-17T14:33:59;7.28;;;6.32;;
63320;SDS011;49449;48.800;9.534;2023-08-17T14:36:31;8.18;;;7.03;;
63320;SDS011;49449;48.800;9.534;2023-08-17T14:39:00;7.25;;;6.63;;
63320;SDS011;49449;48.800;9.534;2023-08-17T14:41:28;7.40;;;6.65;;
63320;SDS011;49449;48.800;9.534;2023-08-17T14:43:58;7.28;;;6.47;;
63320;SDS011;49449;48.800;9.534;2023-08-17T14:46:27;8.00;;;7.13;;
63320;SDS011;49449;48.800;9.534;2023-08-17T14:48:55;7.00;;;6.30;;
63320;SDS011;49449;48.800;9.534;2023-08-17T14:51:23;6.95;;;6.25;;
63320;SDS011;49449;48.800;9.534;2023-08-17T14:53:55;7.53;;;6.75;;
63320;SDS011;49449;48.800;9.534;2023-08-17T14:56:24;8.13;;;7.03;;
63320;SDS011;49449;48.800;9.534;2023-08-17T14:58:52;8.13;;;6.47;;
63320;SDS011;49449;48.800;9.534;2023-08-17T15:01:19;9.20;;;7.20;;
63320;SDS011;49449;48.800;9.534;2023-08-17T15:03:47;7.20;;;6.50;;